sensor_id;sensor_type;location;lat;lon;timestamp;P1;durP1;ratioP1;P2;durP2;ratioP2
59263;SDS011;45030;42.720;23.344;2023-03-23T00:00:57;114.38;;;49.25;;
59263;SDS011;45030;42.720;23.344;2023-03-23T00:03:22;121.57;;;51.42;;
59263;SDS011;45030;42.720;23.344;2023-03-23T00:05:51;88.05;;;41.95;;
59263;SDS011;45030;42.720;23.344;2023-03-23T00:08:17;72.50;;;36.75;;
59263;SDS011;45030;42.720;23.344;2023-03-23T00:10:42;94.22;;;41.55;;
59263;SDS011;45030;42.720;23.344;2023-03-23T00:13:08;111.05;;;56.15;;
59263;SDS011;45030;42.720;23.344;2023-03-23T00:15:33;110.50;;;53.22;;
59263;SDS011;45030;42.720;23.344;2023-03-23T00:18:00;106.82;;;46.40;;
59263;SDS011;45030;42.720;23.344;2023-03-23T00:20:29;98.45;;;45.13;;
59263;SDS011;45030;42.720;23.344;2023-03-23T00:22:55;85.00;;;39.80;;
59263;SDS011;45030;42.720;23.344;2023-03-23T00:25:25;88.40;;;38.95;;
59263;SDS011;45030;42.720;23.344;2023-03-23T00:27:50;75.15;;;35.85;;
59263;SDS011;45030;42.720;23.344;2023-03-23T00:30:15;74.95;;;35.53;;
59263;SDS011;45030;42.720;23.344;2023-03-23T00:32:41;71.97;;;33.38;;
59263;SDS011;45030;42.720;23.344;2023-03-23T00:35:06;63.65;;;32.13;;
59263;SDS011;45030;42.720;23.344;2023-03-23T00:37:32;74.15;;;32.92;;
59263;SDS011;45030;42.720;23.344;2023-03-23T00:39:57;69.22;;;31.65;;
59263;SDS011;45030;42.720;23.344;2023-03-23T00:42:22;67.88;;;29.85;;
59263;SDS011;45030;42.720;23.344;2023-03-23T00:44:48;66.35;;;29.98;;
59263;SDS011;45030;42.720;23.344;2023-03-23T00:47:13;70.85;;;29.27;;
59263;SDS011;45030;42.720;23.344;2023-03-23T00:49:39;64.68;;;29.80;;
59263;SDS011;45030;42.720;23.344;2023-03-23T00:52:06;58.75;;;27.75;;
59263;SDS011;45030;42.720;23.344;2023-03-23T00:54:31;63.42;;;28.20;;
59263;SDS011;45030;42.720;23.344;2023-03-23T00:56:58;57.67;;;30.40;;
59263;SDS011;45030;42.720;23.344;2023-03-23T00:59:23;70.97;;;31.83;;
59263;SDS011;45030;42.720;23.344;2023-03-23T01:01:49;98.80;;;41.25;;
59263;SDS011;45030;42.720;23.344;2023-03-23T01:04:14;69.03;;;33.00;;
59263;SDS011;45030;42.720;23.344;2023-03-23T01:06:41;91.57;;;40.33;;
59263;SDS011;45030;42.720;23.344;2023-03-23T01:09:08;95.75;;;41.38;;
59263;SDS011;45030;42.720;23.344;2023-03-23T01:11:33;107.55;;;45.63;;
59263;SDS011;45030;42.720;23.344;2023-03-23T01:13:59;77.45;;;36.50;;
59263;SDS011;45030;42.720;23.344;2023-03-23T01:16:25;93.00;;;42.78;;
59263;SDS011;45030;42.720;23.344;2023-03-23T01:18:50;81.60;;;40.50;;
59263;SDS011;45030;42.720;23.344;2023-03-23T01:21:17;102.15;;;43.97;;
59263;SDS011;45030;42.720;23.344;2023-03-23T01:23:43;79.50;;;35.13;;
59263;SDS011;45030;42.720;23.344;2023-03-23T01:26:16;92.15;;;39.72;;
59263;SDS011;45030;42.720;23.344;2023-03-23T01:28:41;103.75;;;40.70;;
59263;SDS011;45030;42.720;23.344;2023-03-23T01:31:08;87.43;;;39.65;;
59263;SDS011;45030;42.720;23.344;2023-03-23T01:33:35;84.95;;;36.33;;
59263;SDS011;45030;42.720;23.344;2023-03-23T01:36:04;76.88;;;35.35;;
59263;SDS011;45030;42.720;23.344;2023-03-23T01:38:30;84.47;;;39.50;;
59263;SDS011;45030;42.720;23.344;2023-03-23T01:40:56;79.45;;;35.85;;
59263;SDS011;45030;42.720;23.344;2023-03-23T01:43:21;80.72;;;37.25;;
59263;SDS011;45030;42.720;23.344;2023-03-23T01:45:47;103.07;;;41.67;;
59263;SDS011;45030;42.720;23.344;2023-03-23T01:48:15;94.32;;;36.72;;
59263;SDS011;45030;42.720;23.344;2023-03-23T01:51:27;93.30;;;35.95;;
59263;SDS011;45030;42.720;23.344;2023-03-23T01:53:31;82.75;;;36.15;;
59263;SDS011;45030;42.720;23.344;2023-03-23T01:55:58;93.13;;;37.03;;
59263;SDS011;45030;42.720;23.344;2023-03-23T01:58:26;94.20;;;39.08;;
59263;SDS011;45030;42.720;23.344;2023-03-23T02:00:52;93.65;;;36.50;;
59263;SDS011;45030;42.720;23.344;2023-03-23T02:03:18;81.68;;;32.60;;
59263;SDS011;45030;42.720;23.344;2023-03-23T02:05:44;79.43;;;35.13;;
59263;SDS011;45030;42.720;23.344;2023-03-23T02:08:10;75.72;;;32.38;;
59263;SDS011;45030;42.720;23.344;2023-03-23T02:10:38;75.93;;;31.23;;
59263;SDS011;45030;42.720;23.344;2023-03-23T02:13:04;69.80;;;32.78;;
59263;SDS011;45030;42.720;23.344;2023-03-23T02:15:37;59.55;;;27.95;;
59263;SDS011;45030;42.720;23.344;2023-03-23T02:18:11;51.35;;;26.52;;
59263;SDS011;45030;42.720;23.344;2023-03-23T02:26:23;49.33;;;23.67;;
59263;SDS011;45030;42.720;23.344;2023-03-23T02:39:13;36.72;;;17.50;;
59263;SDS011;45030;42.720;23.344;2023-03-23T02:41:16;31.38;;;16.88;;
59263;SDS011;45030;42.720;23.344;2023-03-23T02:43:43;33.55;;;17.27;;
59263;SDS011;45030;42.720;23.344;2023-03-23T02:46:09;31.42;;;15.77;;
59263;SDS011;45030;42.720;23.344;2023-03-23T02:48:35;30.48;;;15.80;;
59263;SDS011;45030;42.720;23.344;2023-03-23T02:51:01;35.53;;;17.67;;
59263;SDS011;45030;42.720;23.344;2023-03-23T02:53:28;37.58;;;18.38;;
59263;SDS011;45030;42.720;23.344;2023-03-23T02:55:54;42.63;;;20.38;;
59263;SDS011;45030;42.720;23.344;2023-03-23T02:58:20;41.92;;;20.60;;
59263;SDS011;45030;42.720;23.344;2023-03-23T03:00:48;29.92;;;16.55;;
59263;SDS011;45030;42.720;23.344;2023-03-23T03:03:15;32.80;;;16.95;;
59263;SDS011;45030;42.720;23.344;2023-03-23T03:05:44;41.40;;;19.13;;
59263;SDS011;45030;42.720;23.344;2023-03-23T03:08:24;59.15;;;24.88;;
59263;SDS011;45030;42.720;23.344;2023-03-23T03:10:55;70.53;;;26.48;;
59263;SDS011;45030;42.720;23.344;2023-03-23T03:13:33;56.63;;;24.45;;
59263;SDS011;45030;42.720;23.344;2023-03-23T03:16:04;143.60;;;34.90;;
59263;SDS011;45030;42.720;23.344;2023-03-23T03:18:37;99.13;;;34.55;;
59263;SDS011;45030;42.720;23.344;2023-03-23T03:21:04;40.10;;;15.52;;
59263;SDS011;45030;42.720;23.344;2023-03-23T03:23:29;71.10;;;23.67;;
59263;SDS011;45030;42.720;23.344;2023-03-23T03:25:57;55.67;;;20.45;;
59263;SDS011;45030;42.720;23.344;2023-03-23T03:28:22;47.17;;;21.13;;
59263;SDS011;45030;42.720;23.344;2023-03-23T03:30:55;45.00;;;21.13;;
59263;SDS011;45030;42.720;23.344;2023-03-23T03:33:25;45.88;;;19.83;;
59263;SDS011;45030;42.720;23.344;2023-03-23T03:35:52;44.42;;;21.05;;
59263;SDS011;45030;42.720;23.344;2023-03-23T03:38:18;47.50;;;18.95;;
59263;SDS011;45030;42.720;23.344;2023-03-23T03:40:45;35.38;;;17.92;;
59263;SDS011;45030;42.720;23.344;2023-03-23T03:43:10;48.50;;;19.08;;
59263;SDS011;45030;42.720;23.344;2023-03-23T03:45:37;35.00;;;18.45;;
59263;SDS011;45030;42.720;23.344;2023-03-23T03:48:02;49.15;;;20.67;;
59263;SDS011;45030;42.720;23.344;2023-03-23T03:50:28;48.03;;;21.52;;
59263;SDS011;45030;42.720;23.344;2023-03-23T03:52:54;48.90;;;23.60;;
59263;SDS011;45030;42.720;23.344;2023-03-23T03:55:19;52.90;;;22.15;;
59263;SDS011;45030;42.720;23.344;2023-03-23T03:57:44;48.10;;;22.23;;
59263;SDS011;45030;42.720;23.344;2023-03-23T04:00:10;41.90;;;20.75;;
59263;SDS011;45030;42.720;23.344;2023-03-23T04:02:42;40.78;;;20.15;;
59263;SDS011;45030;42.720;23.344;2023-03-23T04:05:08;47.05;;;22.80;;
59263;SDS011;45030;42.720;23.344;2023-03-23T04:07:34;44.63;;;21.23;;
59263;SDS011;45030;42.720;23.344;2023-03-23T04:10:03;44.13;;;21.88;;
59263;SDS011;45030;42.720;23.344;2023-03-23T04:12:29;43.70;;;21.55;;
59263;SDS011;45030;42.720;23.344;2023-03-23T04:14:54;48.50;;;23.38;;
59263;SDS011;45030;42.720;23.344;2023-03-23T04:17:20;55.75;;;28.30;;
59263;SDS011;45030;42.720;23.344;2023-03-23T04:19:45;48.13;;;23.50;;
59263;SDS011;45030;42.720;23.344;2023-03-23T04:22:10;47.60;;;23.50;;
59263;SDS011;45030;42.720;23.344;2023-03-23T04:24:36;48.45;;;23.85;;
59263;SDS011;45030;42.720;23.344;2023-03-23T04:27:01;53.00;;;23.50;;
59263;SDS011;45030;42.720;23.344;2023-03-23T04:29:26;53.50;;;24.65;;
59263;SDS011;45030;42.720;23.344;2023-03-23T04:31:52;59.55;;;30.55;;
59263;SDS011;45030;42.720;23.344;2023-03-23T04:34:17;51.92;;;24.88;;
59263;SDS011;45030;42.720;23.344;2023-03-23T04:36:43;51.88;;;27.20;;
59263;SDS011;45030;42.720;23.344;2023-03-23T04:39:08;60.38;;;29.48;;
59263;SDS011;45030;42.720;23.344;2023-03-23T04:41:36;56.42;;;30.02;;
59263;SDS011;45030;42.720;23.344;2023-03-23T04:44:01;61.85;;;31.55;;
59263;SDS011;45030;42.720;23.344;2023-03-23T04:46:28;58.22;;;30.40;;
59263;SDS011;45030;42.720;23.344;2023-03-23T04:48:56;65.95;;;32.33;;
59263;SDS011;45030;42.720;23.344;2023-03-23T04:51:23;56.85;;;26.92;;
59263;SDS011;45030;42.720;23.344;2023-03-23T04:53:49;66.05;;;33.20;;
59263;SDS011;45030;42.720;23.344;2023-03-23T04:56:15;65.75;;;33.80;;
59263;SDS011;45030;42.720;23.344;2023-03-23T04:58:40;61.90;;;31.80;;
59263;SDS011;45030;42.720;23.344;2023-03-23T05:01:05;65.38;;;36.28;;
59263;SDS011;45030;42.720;23.344;2023-03-23T05:03:32;63.60;;;31.73;;
59263;SDS011;45030;42.720;23.344;2023-03-23T05:05:57;57.40;;;28.95;;
59263;SDS011;45030;42.720;23.344;2023-03-23T05:08:25;68.88;;;34.65;;
59263;SDS011;45030;42.720;23.344;2023-03-23T05:10:51;87.05;;;39.08;;
59263;SDS011;45030;42.720;23.344;2023-03-23T05:13:17;63.38;;;34.78;;
59263;SDS011;45030;42.720;23.344;2023-03-23T05:15:43;63.08;;;31.00;;
59263;SDS011;45030;42.720;23.344;2023-03-23T05:18:08;69.57;;;35.38;;
59263;SDS011;45030;42.720;23.344;2023-03-23T05:20:35;64.55;;;33.10;;
59263;SDS011;45030;42.720;23.344;2023-03-23T05:23:00;59.63;;;28.83;;
59263;SDS011;45030;42.720;23.344;2023-03-23T05:25:25;73.03;;;33.92;;
59263;SDS011;45030;42.720;23.344;2023-03-23T05:27:51;60.97;;;30.02;;
59263;SDS011;45030;42.720;23.344;2023-03-23T05:30:19;62.92;;;29.05;;
59263;SDS011;45030;42.720;23.344;2023-03-23T05:32:44;57.92;;;31.38;;
59263;SDS011;45030;42.720;23.344;2023-03-23T05:35:10;58.67;;;30.77;;
59263;SDS011;45030;42.720;23.344;2023-03-23T05:37:36;66.25;;;31.73;;
59263;SDS011;45030;42.720;23.344;2023-03-23T05:40:02;53.65;;;29.48;;
59263;SDS011;45030;42.720;23.344;2023-03-23T05:42:34;56.13;;;27.42;;
59263;SDS011;45030;42.720;23.344;2023-03-23T05:45:01;49.40;;;25.05;;
59263;SDS011;45030;42.720;23.344;2023-03-23T05:47:26;51.35;;;27.25;;
59263;SDS011;45030;42.720;23.344;2023-03-23T05:49:52;54.35;;;28.10;;
59263;SDS011;45030;42.720;23.344;2023-03-23T05:52:17;59.35;;;26.88;;
59263;SDS011;45030;42.720;23.344;2023-03-23T05:54:43;59.20;;;27.67;;
59263;SDS011;45030;42.720;23.344;2023-03-23T05:57:09;61.67;;;25.50;;
59263;SDS011;45030;42.720;23.344;2023-03-23T05:59:36;51.33;;;24.88;;
59263;SDS011;45030;42.720;23.344;2023-03-23T06:02:01;55.92;;;26.95;;
59263;SDS011;45030;42.720;23.344;2023-03-23T06:04:27;61.72;;;29.58;;
59263;SDS011;45030;42.720;23.344;2023-03-23T06:06:52;68.70;;;31.38;;
59263;SDS011;45030;42.720;23.344;2023-03-23T06:09:18;55.22;;;27.48;;
59263;SDS011;45030;42.720;23.344;2023-03-23T06:11:44;45.35;;;23.30;;
59263;SDS011;45030;42.720;23.344;2023-03-23T06:14:10;56.10;;;24.70;;
59263;SDS011;45030;42.720;23.344;2023-03-23T06:16:35;61.03;;;27.60;;
59263;SDS011;45030;42.720;23.344;2023-03-23T06:19:02;56.83;;;27.83;;
59263;SDS011;45030;42.720;23.344;2023-03-23T06:21:29;62.33;;;25.63;;
59263;SDS011;45030;42.720;23.344;2023-03-23T06:23:54;55.00;;;23.45;;
59263;SDS011;45030;42.720;23.344;2023-03-23T06:26:20;42.30;;;21.88;;
59263;SDS011;45030;42.720;23.344;2023-03-23T06:28:49;45.30;;;22.85;;
59263;SDS011;45030;42.720;23.344;2023-03-23T06:31:14;37.30;;;20.20;;
59263;SDS011;45030;42.720;23.344;2023-03-23T06:33:39;39.92;;;20.85;;
59263;SDS011;45030;42.720;23.344;2023-03-23T06:36:06;36.17;;;18.92;;
59263;SDS011;45030;42.720;23.344;2023-03-23T06:38:32;34.53;;;18.83;;
59263;SDS011;45030;42.720;23.344;2023-03-23T06:40:58;33.95;;;18.67;;
59263;SDS011;45030;42.720;23.344;2023-03-23T06:43:24;35.42;;;19.55;;
59263;SDS011;45030;42.720;23.344;2023-03-23T06:45:50;43.00;;;20.60;;
59263;SDS011;45030;42.720;23.344;2023-03-23T06:48:16;33.10;;;17.58;;
59263;SDS011;45030;42.720;23.344;2023-03-23T06:50:45;32.78;;;17.88;;
59263;SDS011;45030;42.720;23.344;2023-03-23T06:53:10;30.88;;;17.70;;
59263;SDS011;45030;42.720;23.344;2023-03-23T06:55:36;26.83;;;17.30;;
59263;SDS011;45030;42.720;23.344;2023-03-23T06:58:04;32.05;;;18.88;;
59263;SDS011;45030;42.720;23.344;2023-03-23T07:00:31;27.48;;;17.33;;
59263;SDS011;45030;42.720;23.344;2023-03-23T07:02:56;31.33;;;18.38;;
59263;SDS011;45030;42.720;23.344;2023-03-23T07:05:22;33.20;;;19.15;;
59263;SDS011;45030;42.720;23.344;2023-03-23T07:07:47;30.73;;;17.77;;
59263;SDS011;45030;42.720;23.344;2023-03-23T07:10:12;28.85;;;18.00;;
59263;SDS011;45030;42.720;23.344;2023-03-23T07:12:38;32.72;;;18.75;;
59263;SDS011;45030;42.720;23.344;2023-03-23T07:15:04;33.35;;;18.65;;
59263;SDS011;45030;42.720;23.344;2023-03-23T07:17:30;34.20;;;19.83;;
59263;SDS011;45030;42.720;23.344;2023-03-23T07:19:56;35.17;;;19.40;;
59263;SDS011;45030;42.720;23.344;2023-03-23T07:22:22;34.67;;;19.80;;
59263;SDS011;45030;42.720;23.344;2023-03-23T07:24:47;35.53;;;20.13;;
59263;SDS011;45030;42.720;23.344;2023-03-23T07:27:12;37.13;;;20.05;;
59263;SDS011;45030;42.720;23.344;2023-03-23T07:29:38;34.20;;;20.35;;
59263;SDS011;45030;42.720;23.344;2023-03-23T07:32:04;35.35;;;20.65;;
59263;SDS011;45030;42.720;23.344;2023-03-23T07:34:30;35.22;;;19.25;;
59263;SDS011;45030;42.720;23.344;2023-03-23T07:36:55;28.92;;;16.77;;
59263;SDS011;45030;42.720;23.344;2023-03-23T07:39:20;30.30;;;17.60;;
59263;SDS011;45030;42.720;23.344;2023-03-23T07:41:48;30.70;;;17.52;;
59263;SDS011;45030;42.720;23.344;2023-03-23T07:44:13;29.50;;;16.75;;
59263;SDS011;45030;42.720;23.344;2023-03-23T07:46:38;26.67;;;16.17;;
59263;SDS011;45030;42.720;23.344;2023-03-23T07:49:04;26.02;;;15.98;;
59263;SDS011;45030;42.720;23.344;2023-03-23T07:51:30;25.67;;;15.70;;
59263;SDS011;45030;42.720;23.344;2023-03-23T07:53:56;24.15;;;15.48;;
59263;SDS011;45030;42.720;23.344;2023-03-23T07:56:21;26.95;;;15.98;;
59263;SDS011;45030;42.720;23.344;2023-03-23T07:58:47;28.08;;;17.08;;
59263;SDS011;45030;42.720;23.344;2023-03-23T08:01:12;32.20;;;18.15;;
59263;SDS011;45030;42.720;23.344;2023-03-23T08:03:38;29.17;;;16.27;;
59263;SDS011;45030;42.720;23.344;2023-03-23T08:06:04;29.23;;;16.98;;
59263;SDS011;45030;42.720;23.344;2023-03-23T08:08:30;28.55;;;15.52;;
59263;SDS011;45030;42.720;23.344;2023-03-23T08:10:55;24.02;;;14.95;;
59263;SDS011;45030;42.720;23.344;2023-03-23T08:13:20;25.25;;;15.35;;
59263;SDS011;45030;42.720;23.344;2023-03-23T08:15:46;26.38;;;15.55;;
59263;SDS011;45030;42.720;23.344;2023-03-23T08:18:11;19.55;;;12.63;;
59263;SDS011;45030;42.720;23.344;2023-03-23T08:20:36;25.50;;;12.75;;
59263;SDS011;45030;42.720;23.344;2023-03-23T08:23:02;19.95;;;12.57;;
59263;SDS011;45030;42.720;23.344;2023-03-23T08:25:28;25.35;;;13.75;;
59263;SDS011;45030;42.720;23.344;2023-03-23T08:27:54;17.35;;;11.30;;
59263;SDS011;45030;42.720;23.344;2023-03-23T08:30:20;17.25;;;10.85;;
59263;SDS011;45030;42.720;23.344;2023-03-23T08:32:47;17.20;;;11.25;;
59263;SDS011;45030;42.720;23.344;2023-03-23T08:35:13;19.83;;;11.60;;
59263;SDS011;45030;42.720;23.344;2023-03-23T08:37:39;19.77;;;12.13;;
59263;SDS011;45030;42.720;23.344;2023-03-23T08:40:09;20.65;;;11.68;;
59263;SDS011;45030;42.720;23.344;2023-03-23T08:42:35;17.40;;;11.32;;
59263;SDS011;45030;42.720;23.344;2023-03-23T08:45:01;19.65;;;11.20;;
59263;SDS011;45030;42.720;23.344;2023-03-23T08:47:26;20.48;;;11.80;;
59263;SDS011;45030;42.720;23.344;2023-03-23T08:49:52;17.23;;;10.63;;
59263;SDS011;45030;42.720;23.344;2023-03-23T08:52:19;17.85;;;9.68;;
59263;SDS011;45030;42.720;23.344;2023-03-23T08:54:44;15.75;;;9.30;;
59263;SDS011;45030;42.720;23.344;2023-03-23T08:57:12;18.77;;;11.15;;
59263;SDS011;45030;42.720;23.344;2023-03-23T08:59:37;16.13;;;9.48;;
59263;SDS011;45030;42.720;23.344;2023-03-23T09:02:02;12.82;;;7.80;;
59263;SDS011;45030;42.720;23.344;2023-03-23T09:04:28;14.85;;;8.20;;
59263;SDS011;45030;42.720;23.344;2023-03-23T09:06:54;12.82;;;8.35;;
59263;SDS011;45030;42.720;23.344;2023-03-23T09:09:20;10.00;;;7.35;;
59263;SDS011;45030;42.720;23.344;2023-03-23T09:11:45;13.40;;;7.25;;
59263;SDS011;45030;42.720;23.344;2023-03-23T09:14:11;11.85;;;7.97;;
59263;SDS011;45030;42.720;23.344;2023-03-23T09:16:36;8.27;;;5.68;;
59263;SDS011;45030;42.720;23.344;2023-03-23T09:19:02;12.38;;;6.68;;
59263;SDS011;45030;42.720;23.344;2023-03-23T09:21:27;10.20;;;6.22;;
59263;SDS011;45030;42.720;23.344;2023-03-23T09:23:55;10.50;;;6.80;;
59263;SDS011;45030;42.720;23.344;2023-03-23T09:26:23;10.63;;;7.38;;
59263;SDS011;45030;42.720;23.344;2023-03-23T09:28:49;9.35;;;6.45;;
59263;SDS011;45030;42.720;23.344;2023-03-23T09:31:14;9.70;;;5.57;;
59263;SDS011;45030;42.720;23.344;2023-03-23T09:33:39;11.63;;;6.97;;
59263;SDS011;45030;42.720;23.344;2023-03-23T09:36:05;15.30;;;7.32;;
59263;SDS011;45030;42.720;23.344;2023-03-23T09:38:33;8.38;;;5.97;;
59263;SDS011;45030;42.720;23.344;2023-03-23T09:41:04;8.88;;;6.32;;
59263;SDS011;45030;42.720;23.344;2023-03-23T09:48:49;8.77;;;5.53;;
59263;SDS011;45030;42.720;23.344;2023-03-23T09:53:49;9.30;;;6.32;;
59263;SDS011;45030;42.720;23.344;2023-03-23T09:56:16;6.57;;;5.10;;
59263;SDS011;45030;42.720;23.344;2023-03-23T09:59:03;8.02;;;4.95;;
59263;SDS011;45030;42.720;23.344;2023-03-23T10:01:35;7.93;;;4.57;;
59263;SDS011;45030;42.720;23.344;2023-03-23T10:04:03;10.15;;;6.10;;
59263;SDS011;45030;42.720;23.344;2023-03-23T10:06:30;8.15;;;6.00;;
59263;SDS011;45030;42.720;23.344;2023-03-23T10:08:56;7.35;;;5.72;;
59263;SDS011;45030;42.720;23.344;2023-03-23T10:16:37;8.52;;;5.65;;
59263;SDS011;45030;42.720;23.344;2023-03-23T10:19:11;8.32;;;5.13;;
59263;SDS011;45030;42.720;23.344;2023-03-23T10:21:37;9.63;;;5.55;;
59263;SDS011;45030;42.720;23.344;2023-03-23T10:24:07;7.25;;;5.13;;
59263;SDS011;45030;42.720;23.344;2023-03-23T10:26:42;7.10;;;5.43;;
59263;SDS011;45030;42.720;23.344;2023-03-23T10:29:12;7.90;;;5.25;;
59263;SDS011;45030;42.720;23.344;2023-03-23T10:31:41;11.35;;;6.50;;
59263;SDS011;45030;42.720;23.344;2023-03-23T10:34:13;8.77;;;5.78;;
59263;SDS011;45030;42.720;23.344;2023-03-23T10:36:50;9.35;;;5.97;;
59263;SDS011;45030;42.720;23.344;2023-03-23T10:39:18;9.07;;;6.03;;
59263;SDS011;45030;42.720;23.344;2023-03-23T10:41:44;8.20;;;5.35;;
59263;SDS011;45030;42.720;23.344;2023-03-23T10:44:19;8.02;;;5.95;;
59263;SDS011;45030;42.720;23.344;2023-03-23T10:49:15;8.02;;;5.72;;
59263;SDS011;45030;42.720;23.344;2023-03-23T10:51:44;7.82;;;5.85;;
59263;SDS011;45030;42.720;23.344;2023-03-23T10:54:11;7.68;;;6.18;;
59263;SDS011;45030;42.720;23.344;2023-03-23T10:56:38;6.72;;;5.22;;
59263;SDS011;45030;42.720;23.344;2023-03-23T11:01:38;8.52;;;5.10;;
59263;SDS011;45030;42.720;23.344;2023-03-23T11:04:10;12.45;;;5.88;;
59263;SDS011;45030;42.720;23.344;2023-03-23T11:06:35;8.15;;;4.97;;
59263;SDS011;45030;42.720;23.344;2023-03-23T11:09:11;8.80;;;6.00;;
59263;SDS011;45030;42.720;23.344;2023-03-23T11:11:38;9.45;;;5.32;;
59263;SDS011;45030;42.720;23.344;2023-03-23T11:16:42;7.35;;;5.18;;
59263;SDS011;45030;42.720;23.344;2023-03-23T11:19:13;6.22;;;5.03;;
59263;SDS011;45030;42.720;23.344;2023-03-23T11:21:39;6.88;;;4.68;;
59263;SDS011;45030;42.720;23.344;2023-03-23T11:24:04;8.35;;;5.22;;
59263;SDS011;45030;42.720;23.344;2023-03-23T11:26:31;8.20;;;4.72;;
59263;SDS011;45030;42.720;23.344;2023-03-23T11:28:58;6.18;;;4.35;;
59263;SDS011;45030;42.720;23.344;2023-03-23T11:31:34;6.63;;;4.85;;
59263;SDS011;45030;42.720;23.344;2023-03-23T11:34:02;6.10;;;4.15;;
59263;SDS011;45030;42.720;23.344;2023-03-23T11:38:56;5.60;;;3.88;;
59263;SDS011;45030;42.720;23.344;2023-03-23T11:41:22;5.70;;;4.03;;
59263;SDS011;45030;42.720;23.344;2023-03-23T11:43:50;6.13;;;3.65;;
59263;SDS011;45030;42.720;23.344;2023-03-23T11:48:51;5.90;;;3.90;;
59263;SDS011;45030;42.720;23.344;2023-03-23T11:51:37;7.55;;;5.40;;
59263;SDS011;45030;42.720;23.344;2023-03-23T11:56:44;5.97;;;3.58;;
59263;SDS011;45030;42.720;23.344;2023-03-23T11:59:11;5.57;;;4.38;;
59263;SDS011;45030;42.720;23.344;2023-03-23T12:06:54;6.65;;;4.32;;
59263;SDS011;45030;42.720;23.344;2023-03-23T12:34:58;6.15;;;3.97;;
59263;SDS011;45030;42.720;23.344;2023-03-23T12:42:51;6.50;;;4.25;;
59263;SDS011;45030;42.720;23.344;2023-03-23T12:45:37;7.00;;;4.65;;
59263;SDS011;45030;42.720;23.344;2023-03-23T12:48:05;11.40;;;7.15;;
59263;SDS011;45030;42.720;23.344;2023-03-23T12:50:36;8.10;;;4.10;;
59263;SDS011;45030;42.720;23.344;2023-03-23T12:55:39;7.32;;;5.07;;
59263;SDS011;45030;42.720;23.344;2023-03-23T12:58:10;7.40;;;4.63;;
59263;SDS011;45030;42.720;23.344;2023-03-23T13:00:56;6.72;;;4.55;;
59263;SDS011;45030;42.720;23.344;2023-03-23T13:08:35;7.22;;;3.92;;
59263;SDS011;45030;42.720;23.344;2023-03-23T13:11:07;7.93;;;4.68;;
59263;SDS011;45030;42.720;23.344;2023-03-23T13:13:44;6.50;;;4.03;;
59263;SDS011;45030;42.720;23.344;2023-03-23T13:16:23;6.28;;;3.58;;
59263;SDS011;45030;42.720;23.344;2023-03-23T13:23:49;5.30;;;3.67;;
59263;SDS011;45030;42.720;23.344;2023-03-23T13:26:19;4.78;;;3.45;;
59263;SDS011;45030;42.720;23.344;2023-03-23T13:31:23;6.20;;;3.83;;
59263;SDS011;45030;42.720;23.344;2023-03-23T13:33:57;14.05;;;4.45;;
59263;SDS011;45030;42.720;23.344;2023-03-23T13:36:37;5.93;;;3.20;;
59263;SDS011;45030;42.720;23.344;2023-03-23T13:39:04;6.78;;;4.30;;
59263;SDS011;45030;42.720;23.344;2023-03-23T13:41:32;5.47;;;4.28;;
59263;SDS011;45030;42.720;23.344;2023-03-23T13:44:05;4.28;;;3.40;;
59263;SDS011;45030;42.720;23.344;2023-03-23T13:46:39;6.78;;;3.75;;
59263;SDS011;45030;42.720;23.344;2023-03-23T14:01:55;9.68;;;4.88;;
59263;SDS011;45030;42.720;23.344;2023-03-23T14:04:21;10.13;;;4.63;;
59263;SDS011;45030;42.720;23.344;2023-03-23T14:06:47;5.75;;;3.88;;
59263;SDS011;45030;42.720;23.344;2023-03-23T14:09:16;6.35;;;4.60;;
59263;SDS011;45030;42.720;23.344;2023-03-23T14:11:45;7.32;;;4.40;;
59263;SDS011;45030;42.720;23.344;2023-03-23T14:14:14;6.65;;;3.45;;
59263;SDS011;45030;42.720;23.344;2023-03-23T14:19:19;5.97;;;4.57;;
59263;SDS011;45030;42.720;23.344;2023-03-23T14:21:50;5.57;;;3.95;;
59263;SDS011;45030;42.720;23.344;2023-03-23T14:24:16;6.35;;;4.15;;
59263;SDS011;45030;42.720;23.344;2023-03-23T14:26:42;6.60;;;4.30;;
59263;SDS011;45030;42.720;23.344;2023-03-23T14:29:09;6.80;;;5.28;;
59263;SDS011;45030;42.720;23.344;2023-03-23T14:31:35;5.25;;;3.75;;
59263;SDS011;45030;42.720;23.344;2023-03-23T14:34:02;8.23;;;4.85;;
59263;SDS011;45030;42.720;23.344;2023-03-23T14:36:28;5.38;;;3.78;;
59263;SDS011;45030;42.720;23.344;2023-03-23T14:41:22;9.32;;;4.35;;
59263;SDS011;45030;42.720;23.344;2023-03-23T14:43:47;7.50;;;5.22;;
59263;SDS011;45030;42.720;23.344;2023-03-23T14:46:13;7.88;;;4.22;;
59263;SDS011;45030;42.720;23.344;2023-03-23T14:48:38;7.22;;;4.47;;
59263;SDS011;45030;42.720;23.344;2023-03-23T14:51:04;10.07;;;5.40;;
59263;SDS011;45030;42.720;23.344;2023-03-23T14:53:33;6.25;;;4.20;;
59263;SDS011;45030;42.720;23.344;2023-03-23T14:56:01;8.63;;;4.63;;
59263;SDS011;45030;42.720;23.344;2023-03-23T14:58:27;14.75;;;7.63;;
59263;SDS011;45030;42.720;23.344;2023-03-23T15:01:06;8.32;;;5.13;;
59263;SDS011;45030;42.720;23.344;2023-03-23T15:03:41;7.70;;;4.13;;
59263;SDS011;45030;42.720;23.344;2023-03-23T15:06:15;8.98;;;5.07;;
59263;SDS011;45030;42.720;23.344;2023-03-23T15:08:41;10.60;;;5.22;;
59263;SDS011;45030;42.720;23.344;2023-03-23T15:13:32;12.73;;;5.78;;
59263;SDS011;45030;42.720;23.344;2023-03-23T15:16:05;12.10;;;6.00;;
59263;SDS011;45030;42.720;23.344;2023-03-23T15:18:35;7.57;;;4.88;;
59263;SDS011;45030;42.720;23.344;2023-03-23T15:21:08;10.32;;;5.50;;
59263;SDS011;45030;42.720;23.344;2023-03-23T15:23:33;8.55;;;5.63;;
59263;SDS011;45030;42.720;23.344;2023-03-23T15:26:05;7.20;;;4.72;;
59263;SDS011;45030;42.720;23.344;2023-03-23T15:28:32;8.50;;;5.05;;
59263;SDS011;45030;42.720;23.344;2023-03-23T15:31:00;8.85;;;4.95;;
59263;SDS011;45030;42.720;23.344;2023-03-23T15:33:25;7.70;;;5.13;;
59263;SDS011;45030;42.720;23.344;2023-03-23T15:35:53;6.18;;;4.38;;
59263;SDS011;45030;42.720;23.344;2023-03-23T15:38:36;5.85;;;4.57;;
59263;SDS011;45030;42.720;23.344;2023-03-23T15:41:03;12.13;;;6.40;;
59263;SDS011;45030;42.720;23.344;2023-03-23T15:43:33;8.32;;;4.50;;
59263;SDS011;45030;42.720;23.344;2023-03-23T15:46:03;8.05;;;4.35;;
59263;SDS011;45030;42.720;23.344;2023-03-23T15:48:30;8.20;;;3.83;;
59263;SDS011;45030;42.720;23.344;2023-03-23T15:50:56;10.00;;;5.75;;
59263;SDS011;45030;42.720;23.344;2023-03-23T15:53:32;8.32;;;5.38;;
59263;SDS011;45030;42.720;23.344;2023-03-23T15:55:58;9.38;;;4.78;;
59263;SDS011;45030;42.720;23.344;2023-03-23T15:58:25;17.63;;;8.05;;
59263;SDS011;45030;42.720;23.344;2023-03-23T16:00:51;8.55;;;4.72;;
59263;SDS011;45030;42.720;23.344;2023-03-23T16:03:19;11.18;;;6.20;;
59263;SDS011;45030;42.720;23.344;2023-03-23T16:05:44;10.85;;;5.78;;
59263;SDS011;45030;42.720;23.344;2023-03-23T16:08:10;7.75;;;5.07;;
59263;SDS011;45030;42.720;23.344;2023-03-23T16:10:36;7.78;;;4.30;;
59263;SDS011;45030;42.720;23.344;2023-03-23T16:13:01;11.90;;;5.50;;
59263;SDS011;45030;42.720;23.344;2023-03-23T16:15:29;7.95;;;4.60;;